sensor_id;sensor_type;location;lat;lon;timestamp;P1;durP1;ratioP1;P2;durP2;ratioP2
6997;SDS011;3539;47.982;12.238;2023-04-21T00:01:11;10.30;;;9.20;;
6997;SDS011;3539;47.982;12.238;2023-04-21T00:03:38;11.10;;;10.00;;
6997;SDS011;3539;47.982;12.238;2023-04-21T00:06:05;10.90;;;9.53;;
6997;SDS011;3539;47.982;12.238;2023-04-21T00:08:33;30.53;;;20.13;;
6997;SDS011;3539;47.982;12.238;2023-04-21T00:11:04;11.30;;;9.83;;
6997;SDS011;3539;47.982;12.238;2023-04-21T00:13:34;12.07;;;10.43;;
6997;SDS011;3539;47.982;12.238;2023-04-21T00:16:03;14.23;;;11.07;;
6997;SDS011;3539;47.982;12.238;2023-04-21T00:18:31;10.93;;;9.83;;
6997;SDS011;3539;47.982;12.238;2023-04-21T00:20:58;11.13;;;9.80;;
6997;SDS011;3539;47.982;12.238;2023-04-21T00:23:25;11.30;;;9.80;;
6997;SDS011;3539;47.982;12.238;2023-04-21T00:25:52;11.43;;;10.07;;
6997;SDS011;3539;47.982;12.238;2023-04-21T00:28:19;12.23;;;10.57;;
6997;SDS011;3539;47.982;12.238;2023-04-21T00:30:45;12.43;;;11.07;;
6997;SDS011;3539;47.982;12.238;2023-04-21T00:33:12;13.37;;;10.70;;
6997;SDS011;3539;47.982;12.238;2023-04-21T00:35:40;11.77;;;10.57;;
6997;SDS011;3539;47.982;12.238;2023-04-21T00:38:07;12.50;;;10.60;;
6997;SDS011;3539;47.982;12.238;2023-04-21T00:40:34;11.40;;;10.20;;
6997;SDS011;3539;47.982;12.238;2023-04-21T00:43:04;11.60;;;10.40;;
6997;SDS011;3539;47.982;12.238;2023-04-21T00:45:31;11.17;;;9.97;;
6997;SDS011;3539;47.982;12.238;2023-04-21T00:47:58;11.20;;;10.00;;
6997;SDS011;3539;47.982;12.238;2023-04-21T00:50:25;10.87;;;9.80;;
6997;SDS011;3539;47.982;12.238;2023-04-21T00:52:53;10.27;;;9.17;;
6997;SDS011;3539;47.982;12.238;2023-04-21T00:55:20;11.30;;;10.20;;
6997;SDS011;3539;47.982;12.238;2023-04-21T00:57:47;12.23;;;9.80;;
6997;SDS011;3539;47.982;12.238;2023-04-21T01:00:14;11.03;;;9.83;;
6997;SDS011;3539;47.982;12.238;2023-04-21T01:02:42;12.07;;;10.40;;
6997;SDS011;3539;47.982;12.238;2023-04-21T01:05:10;11.77;;;10.17;;
6997;SDS011;3539;47.982;12.238;2023-04-21T01:07:37;11.00;;;9.90;;
6997;SDS011;3539;47.982;12.238;2023-04-21T01:10:06;11.03;;;9.87;;
6997;SDS011;3539;47.982;12.238;2023-04-21T01:12:40;11.03;;;9.93;;
6997;SDS011;3539;47.982;12.238;2023-04-21T01:15:08;11.37;;;10.17;;
6997;SDS011;3539;47.982;12.238;2023-04-21T01:17:36;11.67;;;10.47;;
6997;SDS011;3539;47.982;12.238;2023-04-21T01:20:05;12.03;;;10.30;;
6997;SDS011;3539;47.982;12.238;2023-04-21T01:22:37;12.33;;;10.50;;
6997;SDS011;3539;47.982;12.238;2023-04-21T01:25:05;11.80;;;10.13;;
6997;SDS011;3539;47.982;12.238;2023-04-21T01:27:33;11.23;;;9.90;;
6997;SDS011;3539;47.982;12.238;2023-04-21T01:30:00;10.90;;;9.67;;
6997;SDS011;3539;47.982;12.238;2023-04-21T01:32:27;11.13;;;9.97;;
6997;SDS011;3539;47.982;12.238;2023-04-21T01:34:55;12.10;;;10.00;;
6997;SDS011;3539;47.982;12.238;2023-04-21T01:37:23;11.37;;;10.17;;
6997;SDS011;3539;47.982;12.238;2023-04-21T01:39:53;11.70;;;10.50;;
6997;SDS011;3539;47.982;12.238;2023-04-21T01:42:23;11.83;;;9.93;;
6997;SDS011;3539;47.982;12.238;2023-04-21T01:44:51;11.67;;;9.60;;
6997;SDS011;3539;47.982;12.238;2023-04-21T01:47:19;10.70;;;9.10;;
6997;SDS011;3539;47.982;12.238;2023-04-21T01:49:46;9.97;;;8.90;;
6997;SDS011;3539;47.982;12.238;2023-04-21T01:52:13;9.80;;;8.90;;
6997;SDS011;3539;47.982;12.238;2023-04-21T01:54:40;9.83;;;8.27;;
6997;SDS011;3539;47.982;12.238;2023-04-21T01:57:08;9.53;;;8.53;;
6997;SDS011;3539;47.982;12.238;2023-04-21T01:59:35;10.30;;;8.43;;
6997;SDS011;3539;47.982;12.238;2023-04-21T02:02:02;10.03;;;8.77;;
6997;SDS011;3539;47.982;12.238;2023-04-21T02:04:29;9.70;;;8.70;;
6997;SDS011;3539;47.982;12.238;2023-04-21T02:06:56;10.40;;;9.30;;
6997;SDS011;3539;47.982;12.238;2023-04-21T02:09:23;11.03;;;9.80;;
6997;SDS011;3539;47.982;12.238;2023-04-21T02:11:50;10.80;;;9.70;;
6997;SDS011;3539;47.982;12.238;2023-04-21T02:14:18;10.23;;;9.13;;
6997;SDS011;3539;47.982;12.238;2023-04-21T02:16:45;11.30;;;10.03;;
6997;SDS011;3539;47.982;12.238;2023-04-21T02:19:12;13.23;;;10.63;;
6997;SDS011;3539;47.982;12.238;2023-04-21T02:21:39;14.00;;;11.10;;
6997;SDS011;3539;47.982;12.238;2023-04-21T02:24:05;12.23;;;10.20;;
6997;SDS011;3539;47.982;12.238;2023-04-21T02:26:32;12.00;;;10.33;;
6997;SDS011;3539;47.982;12.238;2023-04-21T02:28:59;12.20;;;10.67;;
6997;SDS011;3539;47.982;12.238;2023-04-21T02:31:28;11.23;;;9.57;;
6997;SDS011;3539;47.982;12.238;2023-04-21T02:33:55;11.93;;;9.50;;
6997;SDS011;3539;47.982;12.238;2023-04-21T02:36:22;9.40;;;8.43;;
6997;SDS011;3539;47.982;12.238;2023-04-21T02:38:50;9.40;;;8.40;;
6997;SDS011;3539;47.982;12.238;2023-04-21T02:41:17;9.80;;;8.77;;
6997;SDS011;3539;47.982;12.238;2023-04-21T02:43:43;10.10;;;8.63;;
6997;SDS011;3539;47.982;12.238;2023-04-21T02:46:10;13.97;;;9.27;;
6997;SDS011;3539;47.982;12.238;2023-04-21T02:48:38;12.87;;;9.43;;
6997;SDS011;3539;47.982;12.238;2023-04-21T02:51:09;10.77;;;8.93;;
6997;SDS011;3539;47.982;12.238;2023-04-21T02:53:37;11.13;;;9.83;;
6997;SDS011;3539;47.982;12.238;2023-04-21T02:56:04;10.80;;;9.33;;
6997;SDS011;3539;47.982;12.238;2023-04-21T02:58:33;10.20;;;8.80;;
6997;SDS011;3539;47.982;12.238;2023-04-21T03:00:59;9.93;;;8.67;;
6997;SDS011;3539;47.982;12.238;2023-04-21T03:03:27;11.00;;;9.13;;
6997;SDS011;3539;47.982;12.238;2023-04-21T03:05:58;11.67;;;9.93;;
6997;SDS011;3539;47.982;12.238;2023-04-21T03:08:26;10.13;;;9.03;;
6997;SDS011;3539;47.982;12.238;2023-04-21T03:10:52;11.07;;;9.87;;
6997;SDS011;3539;47.982;12.238;2023-04-21T03:13:19;11.00;;;9.30;;
6997;SDS011;3539;47.982;12.238;2023-04-21T03:15:47;9.97;;;8.93;;
6997;SDS011;3539;47.982;12.238;2023-04-21T03:18:14;11.50;;;9.73;;
6997;SDS011;3539;47.982;12.238;2023-04-21T03:20:41;10.27;;;9.17;;
6997;SDS011;3539;47.982;12.238;2023-04-21T03:23:09;11.53;;;9.80;;
6997;SDS011;3539;47.982;12.238;2023-04-21T03:25:37;10.17;;;9.07;;
6997;SDS011;3539;47.982;12.238;2023-04-21T03:28:03;11.90;;;9.70;;
6997;SDS011;3539;47.982;12.238;2023-04-21T03:30:30;12.33;;;10.03;;
6997;SDS011;3539;47.982;12.238;2023-04-21T03:32:57;11.73;;;9.43;;
6997;SDS011;3539;47.982;12.238;2023-04-21T03:35:24;12.93;;;10.50;;
6997;SDS011;3539;47.982;12.238;2023-04-21T03:37:51;11.90;;;10.47;;
6997;SDS011;3539;47.982;12.238;2023-04-21T03:40:19;11.73;;;9.87;;
6997;SDS011;3539;47.982;12.238;2023-04-21T03:42:46;10.67;;;9.43;;
6997;SDS011;3539;47.982;12.238;2023-04-21T03:45:12;11.87;;;9.27;;
6997;SDS011;3539;47.982;12.238;2023-04-21T03:47:39;13.60;;;9.93;;
6997;SDS011;3539;47.982;12.238;2023-04-21T03:50:06;10.93;;;9.40;;
6997;SDS011;3539;47.982;12.238;2023-04-21T03:52:33;12.33;;;10.20;;
6997;SDS011;3539;47.982;12.238;2023-04-21T03:55:00;15.13;;;12.63;;
6997;SDS011;3539;47.982;12.238;2023-04-21T03:57:28;16.43;;;10.73;;
6997;SDS011;3539;47.982;12.238;2023-04-21T03:59:55;13.20;;;11.33;;
6997;SDS011;3539;47.982;12.238;2023-04-21T04:02:21;16.00;;;11.77;;
6997;SDS011;3539;47.982;12.238;2023-04-21T04:04:48;16.63;;;13.63;;
6997;SDS011;3539;47.982;12.238;2023-04-21T04:07:15;14.60;;;12.47;;
6997;SDS011;3539;47.982;12.238;2023-04-21T04:09:42;13.37;;;11.13;;
6997;SDS011;3539;47.982;12.238;2023-04-21T04:12:09;13.93;;;11.23;;
6997;SDS011;3539;47.982;12.238;2023-04-21T04:14:37;13.10;;;10.50;;
6997;SDS011;3539;47.982;12.238;2023-04-21T04:17:04;13.33;;;11.70;;
6997;SDS011;3539;47.982;12.238;2023-04-21T04:19:31;12.23;;;10.73;;
6997;SDS011;3539;47.982;12.238;2023-04-21T04:21:58;11.20;;;9.80;;
6997;SDS011;3539;47.982;12.238;2023-04-21T04:24:25;11.33;;;9.83;;
6997;SDS011;3539;47.982;12.238;2023-04-21T04:26:52;13.90;;;11.23;;
6997;SDS011;3539;47.982;12.238;2023-04-21T04:29:19;12.17;;;9.47;;
6997;SDS011;3539;47.982;12.238;2023-04-21T04:31:49;12.50;;;10.13;;
6997;SDS011;3539;47.982;12.238;2023-04-21T04:34:16;10.50;;;9.40;;
6997;SDS011;3539;47.982;12.238;2023-04-21T04:36:42;11.57;;;10.07;;
6997;SDS011;3539;47.982;12.238;2023-04-21T04:39:09;11.60;;;10.33;;
6997;SDS011;3539;47.982;12.238;2023-04-21T04:41:36;11.37;;;10.17;;
6997;SDS011;3539;47.982;12.238;2023-04-21T04:44:03;11.97;;;9.37;;
6997;SDS011;3539;47.982;12.238;2023-04-21T04:46:30;9.97;;;8.97;;
6997;SDS011;3539;47.982;12.238;2023-04-21T04:48:59;11.03;;;9.27;;
6997;SDS011;3539;47.982;12.238;2023-04-21T04:51:26;10.57;;;8.93;;
6997;SDS011;3539;47.982;12.238;2023-04-21T04:53:53;10.83;;;9.53;;
6997;SDS011;3539;47.982;12.238;2023-04-21T04:56:20;10.33;;;8.87;;
6997;SDS011;3539;47.982;12.238;2023-04-21T04:58:47;11.40;;;9.47;;
6997;SDS011;3539;47.982;12.238;2023-04-21T05:01:14;12.40;;;10.10;;
6997;SDS011;3539;47.982;12.238;2023-04-21T05:03:41;11.63;;;10.40;;
6997;SDS011;3539;47.982;12.238;2023-04-21T05:06:10;11.43;;;10.23;;
6997;SDS011;3539;47.982;12.238;2023-04-21T05:08:38;14.87;;;11.83;;
6997;SDS011;3539;47.982;12.238;2023-04-21T05:11:05;15.93;;;12.73;;
6997;SDS011;3539;47.982;12.238;2023-04-21T05:13:32;12.13;;;10.83;;
6997;SDS011;3539;47.982;12.238;2023-04-21T05:16:00;10.67;;;9.57;;
6997;SDS011;3539;47.982;12.238;2023-04-21T05:18:27;11.10;;;9.80;;
6997;SDS011;3539;47.982;12.238;2023-04-21T05:20:54;13.53;;;11.00;;
6997;SDS011;3539;47.982;12.238;2023-04-21T05:23:23;11.43;;;9.67;;
6997;SDS011;3539;47.982;12.238;2023-04-21T05:25:50;12.30;;;10.47;;
6997;SDS011;3539;47.982;12.238;2023-04-21T05:28:17;12.60;;;10.87;;
6997;SDS011;3539;47.982;12.238;2023-04-21T05:30:43;13.23;;;11.73;;
6997;SDS011;3539;47.982;12.238;2023-04-21T05:33:10;13.43;;;11.07;;
6997;SDS011;3539;47.982;12.238;2023-04-21T05:35:37;11.77;;;9.83;;
6997;SDS011;3539;47.982;12.238;2023-04-21T05:38:04;15.80;;;10.63;;
6997;SDS011;3539;47.982;12.238;2023-04-21T05:40:33;11.53;;;10.30;;
6997;SDS011;3539;47.982;12.238;2023-04-21T05:43:00;12.10;;;10.53;;
6997;SDS011;3539;47.982;12.238;2023-04-21T05:45:26;11.60;;;10.40;;
6997;SDS011;3539;47.982;12.238;2023-04-21T05:47:53;11.70;;;10.50;;
6997;SDS011;3539;47.982;12.238;2023-04-21T05:50:20;12.00;;;10.43;;
6997;SDS011;3539;47.982;12.238;2023-04-21T05:52:47;12.37;;;10.97;;
6997;SDS011;3539;47.982;12.238;2023-04-21T05:55:14;13.30;;;11.20;;
6997;SDS011;3539;47.982;12.238;2023-04-21T05:57:42;12.47;;;11.17;;
6997;SDS011;3539;47.982;12.238;2023-04-21T06:00:09;12.00;;;10.77;;
6997;SDS011;3539;47.982;12.238;2023-04-21T06:02:38;13.17;;;11.60;;
6997;SDS011;3539;47.982;12.238;2023-04-21T06:05:05;13.63;;;11.13;;
6997;SDS011;3539;47.982;12.238;2023-04-21T06:07:32;15.17;;;12.17;;
6997;SDS011;3539;47.982;12.238;2023-04-21T06:10:01;15.13;;;12.53;;
6997;SDS011;3539;47.982;12.238;2023-04-21T06:12:30;15.87;;;12.80;;
6997;SDS011;3539;47.982;12.238;2023-04-21T06:15:03;16.17;;;13.80;;
6997;SDS011;3539;47.982;12.238;2023-04-21T06:17:31;14.23;;;12.73;;
6997;SDS011;3539;47.982;12.238;2023-04-21T06:19:58;14.90;;;13.17;;
6997;SDS011;3539;47.982;12.238;2023-04-21T06:22:25;15.43;;;13.83;;
6997;SDS011;3539;47.982;12.238;2023-04-21T06:24:54;16.23;;;13.53;;
6997;SDS011;3539;47.982;12.238;2023-04-21T06:27:22;16.20;;;13.90;;
6997;SDS011;3539;47.982;12.238;2023-04-21T06:29:53;15.50;;;13.73;;
6997;SDS011;3539;47.982;12.238;2023-04-21T06:32:30;13.83;;;12.40;;
6997;SDS011;3539;47.982;12.238;2023-04-21T06:34:56;15.27;;;13.33;;
6997;SDS011;3539;47.982;12.238;2023-04-21T06:37:23;15.30;;;12.83;;
6997;SDS011;3539;47.982;12.238;2023-04-21T06:39:54;15.10;;;13.47;;
6997;SDS011;3539;47.982;12.238;2023-04-21T06:42:21;12.73;;;11.30;;
6997;SDS011;3539;47.982;12.238;2023-04-21T06:44:48;13.30;;;11.07;;
6997;SDS011;3539;47.982;12.238;2023-04-21T06:47:15;12.10;;;10.90;;
6997;SDS011;3539;47.982;12.238;2023-04-21T06:49:48;12.60;;;11.27;;
6997;SDS011;3539;47.982;12.238;2023-04-21T06:52:15;13.00;;;11.30;;
6997;SDS011;3539;47.982;12.238;2023-04-21T06:54:43;14.13;;;11.20;;
6997;SDS011;3539;47.982;12.238;2023-04-21T06:57:10;12.17;;;10.97;;
6997;SDS011;3539;47.982;12.238;2023-04-21T06:59:39;13.00;;;11.67;;
6997;SDS011;3539;47.982;12.238;2023-04-21T07:02:06;14.83;;;11.63;;
6997;SDS011;3539;47.982;12.238;2023-04-21T07:04:32;13.93;;;11.40;;
6997;SDS011;3539;47.982;12.238;2023-04-21T07:07:01;13.33;;;11.00;;
6997;SDS011;3539;47.982;12.238;2023-04-21T08:16:02;15.73;;;12.33;;
6997;SDS011;3539;47.982;12.238;2023-04-21T08:18:29;14.20;;;12.57;;
6997;SDS011;3539;47.982;12.238;2023-04-21T08:20:56;13.17;;;11.27;;
6997;SDS011;3539;47.982;12.238;2023-04-21T08:23:23;17.67;;;12.33;;
6997;SDS011;3539;47.982;12.238;2023-04-21T08:25:50;14.87;;;11.67;;
6997;SDS011;3539;47.982;12.238;2023-04-21T08:28:17;12.40;;;11.10;;
6997;SDS011;3539;47.982;12.238;2023-04-21T08:30:43;14.57;;;11.20;;
6997;SDS011;3539;47.982;12.238;2023-04-21T08:33:12;12.90;;;10.93;;
6997;SDS011;3539;47.982;12.238;2023-04-21T08:35:39;11.27;;;9.90;;
6997;SDS011;3539;47.982;12.238;2023-04-21T08:38:06;12.13;;;10.07;;
6997;SDS011;3539;47.982;12.238;2023-04-21T08:40:34;11.97;;;9.70;;
6997;SDS011;3539;47.982;12.238;2023-04-21T08:43:03;11.97;;;10.33;;
6997;SDS011;3539;47.982;12.238;2023-04-21T08:45:31;13.27;;;11.63;;
6997;SDS011;3539;47.982;12.238;2023-04-21T08:47:58;13.20;;;11.07;;
6997;SDS011;3539;47.982;12.238;2023-04-21T08:50:28;12.40;;;10.90;;
6997;SDS011;3539;47.982;12.238;2023-04-21T08:52:55;12.20;;;10.90;;
6997;SDS011;3539;47.982;12.238;2023-04-21T08:55:23;11.70;;;10.50;;
6997;SDS011;3539;47.982;12.238;2023-04-21T08:57:51;13.53;;;10.80;;
6997;SDS011;3539;47.982;12.238;2023-04-21T09:00:18;14.40;;;11.27;;
6997;SDS011;3539;47.982;12.238;2023-04-21T09:02:52;12.87;;;11.37;;
6997;SDS011;3539;47.982;12.238;2023-04-21T09:05:24;12.93;;;11.23;;
6997;SDS011;3539;47.982;12.238;2023-04-21T09:07:54;12.67;;;11.37;;
6997;SDS011;3539;47.982;12.238;2023-04-21T09:10:33;13.13;;;10.90;;
6997;SDS011;3539;47.982;12.238;2023-04-21T09:13:08;13.47;;;9.77;;
6997;SDS011;3539;47.982;12.238;2023-04-21T09:15:37;15.87;;;10.77;;
6997;SDS011;3539;47.982;12.238;2023-04-21T09:18:11;13.20;;;10.73;;
6997;SDS011;3539;47.982;12.238;2023-04-21T09:20:42;13.83;;;11.33;;
6997;SDS011;3539;47.982;12.238;2023-04-21T09:23:14;12.23;;;10.50;;
6997;SDS011;3539;47.982;12.238;2023-04-21T09:25:41;13.17;;;10.40;;
6997;SDS011;3539;47.982;12.238;2023-04-21T09:28:09;11.00;;;9.87;;
6997;SDS011;3539;47.982;12.238;2023-04-21T09:30:37;13.23;;;10.50;;
6997;SDS011;3539;47.982;12.238;2023-04-21T09:33:05;11.07;;;9.97;;
6997;SDS011;3539;47.982;12.238;2023-04-21T09:35:33;11.30;;;9.53;;
6997;SDS011;3539;47.982;12.238;2023-04-21T09:38:00;11.97;;;9.57;;
6997;SDS011;3539;47.982;12.238;2023-04-21T09:40:29;10.80;;;9.33;;
6997;SDS011;3539;47.982;12.238;2023-04-21T09:42:56;11.77;;;9.23;;
6997;SDS011;3539;47.982;12.238;2023-04-21T09:45:24;11.87;;;10.60;;
6997;SDS011;3539;47.982;12.238;2023-04-21T09:47:53;11.17;;;9.93;;
6997;SDS011;3539;47.982;12.238;2023-04-21T09:50:22;11.83;;;10.60;;
6997;SDS011;3539;47.982;12.238;2023-04-21T09:52:50;12.00;;;10.50;;
6997;SDS011;3539;47.982;12.238;2023-04-21T09:55:20;10.70;;;9.30;;
6997;SDS011;3539;47.982;12.238;2023-04-21T09:57:50;11.67;;;9.67;;
6997;SDS011;3539;47.982;12.238;2023-04-21T10:00:18;9.90;;;8.80;;
6997;SDS011;3539;47.982;12.238;2023-04-21T10:02:47;9.97;;;8.57;;
6997;SDS011;3539;47.982;12.238;2023-04-21T10:05:15;9.07;;;8.10;;
6997;SDS011;3539;47.982;12.238;2023-04-21T10:07:42;10.27;;;8.60;;
6997;SDS011;3539;47.982;12.238;2023-04-21T10:10:11;9.80;;;8.20;;
6997;SDS011;3539;47.982;12.238;2023-04-21T10:12:42;9.80;;;8.47;;
6997;SDS011;3539;47.982;12.238;2023-04-21T10:18:14;9.50;;;7.67;;
6997;SDS011;3539;47.982;12.238;2023-04-21T10:20:54;8.73;;;7.83;;
6997;SDS011;3539;47.982;12.238;2023-04-21T10:23:26;7.43;;;6.57;;
6997;SDS011;3539;47.982;12.238;2023-04-21T10:26:09;7.30;;;6.47;;
6997;SDS011;3539;47.982;12.238;2023-04-21T10:28:47;8.20;;;6.40;;
6997;SDS011;3539;47.982;12.238;2023-04-21T10:31:19;7.23;;;6.07;;
6997;SDS011;3539;47.982;12.238;2023-04-21T10:36:49;7.27;;;6.13;;
6997;SDS011;3539;47.982;12.238;2023-04-21T10:39:32;7.23;;;6.23;;
6997;SDS011;3539;47.982;12.238;2023-04-21T10:45:04;6.13;;;5.53;;
6997;SDS011;3539;47.982;12.238;2023-04-21T10:50:27;6.07;;;5.03;;
6997;SDS011;3539;47.982;12.238;2023-04-21T10:52:56;5.90;;;5.30;;
6997;SDS011;3539;47.982;12.238;2023-04-21T10:55:25;5.30;;;4.80;;
6997;SDS011;3539;47.982;12.238;2023-04-21T10:58:16;5.50;;;5.00;;
6997;SDS011;3539;47.982;12.238;2023-04-21T11:01:19;4.90;;;4.27;;
6997;SDS011;3539;47.982;12.238;2023-04-21T11:03:48;4.87;;;4.33;;
6997;SDS011;3539;47.982;12.238;2023-04-21T11:06:22;4.97;;;4.30;;
6997;SDS011;3539;47.982;12.238;2023-04-21T11:08:54;4.80;;;4.20;;
6997;SDS011;3539;47.982;12.238;2023-04-21T11:11:21;4.57;;;4.10;;
6997;SDS011;3539;47.982;12.238;2023-04-21T11:13:51;4.90;;;4.37;;
6997;SDS011;3539;47.982;12.238;2023-04-21T11:16:18;5.13;;;4.30;;
6997;SDS011;3539;47.982;12.238;2023-04-21T11:18:48;4.70;;;4.20;;
6997;SDS011;3539;47.982;12.238;2023-04-21T11:21:15;7.00;;;4.20;;
6997;SDS011;3539;47.982;12.238;2023-04-21T11:23:47;4.53;;;4.00;;
6997;SDS011;3539;47.982;12.238;2023-04-21T11:26:16;4.67;;;3.90;;
6997;SDS011;3539;47.982;12.238;2023-04-21T11:28:46;5.80;;;3.90;;
6997;SDS011;3539;47.982;12.238;2023-04-21T11:31:14;5.53;;;3.80;;
6997;SDS011;3539;47.982;12.238;2023-04-21T11:33:41;4.57;;;3.50;;
6997;SDS011;3539;47.982;12.238;2023-04-21T11:36:10;4.73;;;3.53;;
6997;SDS011;3539;47.982;12.238;2023-04-21T11:38:37;5.70;;;3.40;;
6997;SDS011;3539;47.982;12.238;2023-04-21T11:41:05;3.50;;;3.20;;
6997;SDS011;3539;47.982;12.238;2023-04-21T11:43:33;3.50;;;2.97;;
6997;SDS011;3539;47.982;12.238;2023-04-21T11:46:15;3.23;;;2.90;;
6997;SDS011;3539;47.982;12.238;2023-04-21T11:48:45;3.17;;;2.87;;
6997;SDS011;3539;47.982;12.238;2023-04-21T11:51:19;4.10;;;2.70;;
6997;SDS011;3539;47.982;12.238;2023-04-21T11:53:49;2.90;;;2.60;;
6997;SDS011;3539;47.982;12.238;2023-04-21T11:56:17;3.33;;;3.03;;
6997;SDS011;3539;47.982;12.238;2023-04-21T11:58:46;3.50;;;3.20;;
6997;SDS011;3539;47.982;12.238;2023-04-21T12:01:14;5.97;;;3.17;;
6997;SDS011;3539;47.982;12.238;2023-04-21T12:03:49;3.20;;;2.90;;
6997;SDS011;3539;47.982;12.238;2023-04-21T12:06:20;2.80;;;2.50;;
6997;SDS011;3539;47.982;12.238;2023-04-21T12:08:48;3.90;;;2.50;;
6997;SDS011;3539;47.982;12.238;2023-04-21T12:11:19;2.70;;;2.30;;
6997;SDS011;3539;47.982;12.238;2023-04-21T12:13:49;5.93;;;2.10;;
6997;SDS011;3539;47.982;12.238;2023-04-21T12:16:20;3.17;;;2.20;;
6997;SDS011;3539;47.982;12.238;2023-04-21T12:18:56;6.90;;;3.20;;
6997;SDS011;3539;47.982;12.238;2023-04-21T12:21:43;40.40;;;10.50;;
6997;SDS011;3539;47.982;12.238;2023-04-21T12:24:10;6.53;;;2.70;;
6997;SDS011;3539;47.982;12.238;2023-04-21T12:26:54;4.57;;;2.30;;
6997;SDS011;3539;47.982;12.238;2023-04-21T12:29:38;2.57;;;2.17;;
6997;SDS011;3539;47.982;12.238;2023-04-21T12:32:06;2.00;;;1.90;;
6997;SDS011;3539;47.982;12.238;2023-04-21T12:34:36;2.37;;;2.17;;
6997;SDS011;3539;47.982;12.238;2023-04-21T12:37:05;10.43;;;3.53;;
6997;SDS011;3539;47.982;12.238;2023-04-21T12:39:33;2.30;;;2.10;;
6997;SDS011;3539;47.982;12.238;2023-04-21T12:42:01;2.20;;;2.00;;
6997;SDS011;3539;47.982;12.238;2023-04-21T12:44:28;3.10;;;2.13;;
6997;SDS011;3539;47.982;12.238;2023-04-21T12:46:55;2.20;;;2.00;;
6997;SDS011;3539;47.982;12.238;2023-04-21T12:49:23;2.70;;;1.97;;
6997;SDS011;3539;47.982;12.238;2023-04-21T12:51:50;3.80;;;2.17;;
6997;SDS011;3539;47.982;12.238;2023-04-21T12:54:19;2.30;;;1.97;;
6997;SDS011;3539;47.982;12.238;2023-04-21T12:56:46;4.03;;;2.10;;
6997;SDS011;3539;47.982;12.238;2023-04-21T12:59:13;2.20;;;2.00;;
6997;SDS011;3539;47.982;12.238;2023-04-21T13:01:40;3.20;;;2.07;;
6997;SDS011;3539;47.982;12.238;2023-04-21T13:04:08;2.10;;;1.90;;
6997;SDS011;3539;47.982;12.238;2023-04-21T13:06:35;2.33;;;2.07;;
6997;SDS011;3539;47.982;12.238;2023-04-21T13:09:04;3.20;;;2.43;;
6997;SDS011;3539;47.982;12.238;2023-04-21T13:11:32;2.60;;;2.20;;
6997;SDS011;3539;47.982;12.238;2023-04-21T13:13:59;4.90;;;2.40;;
6997;SDS011;3539;47.982;12.238;2023-04-21T13:16:28;2.40;;;2.20;;
6997;SDS011;3539;47.982;12.238;2023-04-21T13:18:55;2.83;;;2.10;;
6997;SDS011;3539;47.982;12.238;2023-04-21T13:21:22;4.47;;;1.97;;
6997;SDS011;3539;47.982;12.238;2023-04-21T13:23:49;2.10;;;1.80;;
6997;SDS011;3539;47.982;12.238;2023-04-21T13:26:16;1.90;;;1.67;;
6997;SDS011;3539;47.982;12.238;2023-04-21T13:28:44;3.47;;;2.17;;
6997;SDS011;3539;47.982;12.238;2023-04-21T13:31:11;3.57;;;2.13;;
6997;SDS011;3539;47.982;12.238;2023-04-21T13:33:38;3.10;;;1.90;;
6997;SDS011;3539;47.982;12.238;2023-04-21T13:36:05;2.33;;;2.13;;
6997;SDS011;3539;47.982;12.238;2023-04-21T13:38:33;3.10;;;2.37;;
6997;SDS011;3539;47.982;12.238;2023-04-21T13:41:00;2.43;;;2.20;;
6997;SDS011;3539;47.982;12.238;2023-04-21T13:43:27;2.50;;;1.90;;
6997;SDS011;3539;47.982;12.238;2023-04-21T13:45:55;2.40;;;2.20;;
6997;SDS011;3539;47.982;12.238;2023-04-21T13:48:22;2.10;;;1.87;;
6997;SDS011;3539;47.982;12.238;2023-04-21T13:50:49;3.83;;;2.10;;
6997;SDS011;3539;47.982;12.238;2023-04-21T13:53:16;2.03;;;1.83;;
6997;SDS011;3539;47.982;12.238;2023-04-21T13:55:43;2.37;;;1.93;;
6997;SDS011;3539;47.982;12.238;2023-04-21T13:58:10;2.93;;;2.00;;
6997;SDS011;3539;47.982;12.238;2023-04-21T14:00:37;2.33;;;1.93;;
6997;SDS011;3539;47.982;12.238;2023-04-21T14:03:05;2.33;;;2.13;;
6997;SDS011;3539;47.982;12.238;2023-04-21T14:05:32;2.10;;;1.90;;
6997;SDS011;3539;47.982;12.238;2023-04-21T14:07:59;2.17;;;1.97;;
6997;SDS011;3539;47.982;12.238;2023-04-21T14:10:26;2.30;;;2.10;;
6997;SDS011;3539;47.982;12.238;2023-04-21T14:12:52;1.83;;;1.73;;
6997;SDS011;3539;47.982;12.238;2023-04-21T14:15:19;2.07;;;1.80;;
6997;SDS011;3539;47.982;12.238;2023-04-21T14:17:46;2.10;;;1.90;;
6997;SDS011;3539;47.982;12.238;2023-04-21T14:20:14;2.77;;;1.83;;
6997;SDS011;3539;47.982;12.238;2023-04-21T14:22:41;4.10;;;1.83;;
6997;SDS011;3539;47.982;12.238;2023-04-21T14:25:08;2.20;;;1.80;;
6997;SDS011;3539;47.982;12.238;2023-04-21T14:27:35;2.10;;;1.90;;
6997;SDS011;3539;47.982;12.238;2023-04-21T14:30:02;2.10;;;1.90;;
6997;SDS011;3539;47.982;12.238;2023-04-21T14:32:29;1.67;;;1.57;;
6997;SDS011;3539;47.982;12.238;2023-04-21T14:34:56;1.70;;;1.60;;
6997;SDS011;3539;47.982;12.238;2023-04-21T14:37:25;3.47;;;1.50;;
6997;SDS011;3539;47.982;12.238;2023-04-21T14:39:52;1.97;;;1.50;;
6997;SDS011;3539;47.982;12.238;2023-04-21T14:42:19;1.90;;;1.63;;
6997;SDS011;3539;47.982;12.238;2023-04-21T14:44:46;3.67;;;1.70;;
6997;SDS011;3539;47.982;12.238;2023-04-21T14:47:12;1.80;;;1.70;;
6997;SDS011;3539;47.982;12.238;2023-04-21T14:49:39;1.70;;;1.60;;
6997;SDS011;3539;47.982;12.238;2023-04-21T14:52:09;2.10;;;1.50;;
6997;SDS011;3539;47.982;12.238;2023-04-21T14:54:39;2.83;;;1.80;;
6997;SDS011;3539;47.982;12.238;2023-04-21T14:57:06;1.67;;;1.57;;
6997;SDS011;3539;47.982;12.238;2023-04-21T14:59:33;1.70;;;1.60;;
6997;SDS011;3539;47.982;12.238;2023-04-21T15:02:00;1.57;;;1.40;;
6997;SDS011;3539;47.982;12.238;2023-04-21T15:04:27;1.40;;;1.30;;
6997;SDS011;3539;47.982;12.238;2023-04-21T15:06:57;1.67;;;1.57;;
6997;SDS011;3539;47.982;12.238;2023-04-21T15:09:24;1.63;;;1.53;;
6997;SDS011;3539;47.982;12.238;2023-04-21T15:11:55;1.83;;;1.73;;
6997;SDS011;3539;47.982;12.238;2023-04-21T15:14:24;2.13;;;1.90;;
6997;SDS011;3539;47.982;12.238;2023-04-21T15:16:51;1.73;;;1.63;;
6997;SDS011;3539;47.982;12.238;2023-04-21T15:19:20;3.20;;;1.80;;
6997;SDS011;3539;47.982;12.238;2023-04-21T15:21:48;1.70;;;1.60;;
6997;SDS011;3539;47.982;12.238;2023-04-21T15:24:15;1.83;;;1.60;;
6997;SDS011;3539;47.982;12.238;2023-04-21T15:26:42;2.33;;;1.80;;
6997;SDS011;3539;47.982;12.238;2023-04-21T15:29:11;1.70;;;1.60;;
6997;SDS011;3539;47.982;12.238;2023-04-21T15:31:38;2.47;;;1.80;;
6997;SDS011;3539;47.982;12.238;2023-04-21T15:34:05;2.43;;;1.60;;
6997;SDS011;3539;47.982;12.238;2023-04-21T15:36:32;1.67;;;1.57;;
6997;SDS011;3539;47.982;12.238;2023-04-21T15:38:59;3.17;;;2.00;;
6997;SDS011;3539;47.982;12.238;2023-04-21T15:41:26;23.30;;;6.80;;
6997;SDS011;3539;47.982;12.238;2023-04-21T15:43:55;2.23;;;1.63;;
6997;SDS011;3539;47.982;12.238;2023-04-21T15:46:23;2.50;;;1.90;;
6997;SDS011;3539;47.982;12.238;2023-04-21T15:48:50;2.37;;;1.80;;
6997;SDS011;3539;47.982;12.238;2023-04-21T15:51:17;1.90;;;1.70;;
6997;SDS011;3539;47.982;12.238;2023-04-21T15:53:44;2.00;;;1.80;;
6997;SDS011;3539;47.982;12.238;2023-04-21T15:56:13;4.97;;;2.03;;
6997;SDS011;3539;47.982;12.238;2023-04-21T15:58:40;2.47;;;1.93;;
6997;SDS011;3539;47.982;12.238;2023-04-21T16:01:07;1.97;;;1.87;;
6997;SDS011;3539;47.982;12.238;2023-04-21T16:03:35;3.50;;;2.27;;
6997;SDS011;3539;47.982;12.238;2023-04-21T16:06:04;2.57;;;2.37;;
6997;SDS011;3539;47.982;12.238;2023-04-21T16:08:31;2.40;;;2.07;;
6997;SDS011;3539;47.982;12.238;2023-04-21T16:10:58;2.33;;;2.00;;
6997;SDS011;3539;47.982;12.238;2023-04-21T16:13:25;2.20;;;2.00;;